sensor_id;sensor_type;location;lat;lon;timestamp;pressure;altitude;pressure_sealevel;temperature;humidity
59435;BME280;45241;49.768;8.636;2023-12-20T00:01:23;100289.47;;;5.37;100.00
59435;BME280;45241;49.768;8.636;2023-12-20T00:03:48;100292.28;;;5.35;100.00
59435;BME280;45241;49.768;8.636;2023-12-20T00:06:13;100285.47;;;5.33;100.00
59435;BME280;45241;49.768;8.636;2023-12-20T00:08:39;100284.63;;;5.32;100.00
59435;BME280;45241;49.768;8.636;2023-12-20T00:11:04;100277.16;;;5.36;100.00
59435;BME280;45241;49.768;8.636;2023-12-20T00:13:29;100273.69;;;5.35;100.00
59435;BME280;45241;49.768;8.636;2023-12-20T00:15:55;100281.03;;;5.41;100.00
59435;BME280;45241;49.768;8.636;2023-12-20T00:18:20;100279.81;;;5.36;100.00
59435;BME280;45241;49.768;8.636;2023-12-20T00:20:45;100275.66;;;5.33;100.00
59435;BME280;45241;49.768;8.636;2023-12-20T00:23:10;100271.66;;;5.29;100.00
59435;BME280;45241;49.768;8.636;2023-12-20T00:25:36;100274.84;;;5.33;100.00
59435;BME280;45241;49.768;8.636;2023-12-20T00:28:01;100271.66;;;5.29;100.00
59435;BME280;45241;49.768;8.636;2023-12-20T00:30:27;100280.75;;;5.27;100.00
59435;BME280;45241;49.768;8.636;2023-12-20T00:32:53;100265.50;;;5.29;100.00
59435;BME280;45241;49.768;8.636;2023-12-20T00:35:18;100268.19;;;5.37;100.00
59435;BME280;45241;49.768;8.636;2023-12-20T00:37:44;100268.38;;;5.35;100.00
59435;BME280;45241;49.768;8.636;2023-12-20T00:40:09;100265.34;;;5.30;100.00
59435;BME280;45241;49.768;8.636;2023-12-20T00:42:35;100255.91;;;5.36;100.00
59435;BME280;45241;49.768;8.636;2023-12-20T00:45:03;100257.53;;;5.29;100.00
59435;BME280;45241;49.768;8.636;2023-12-20T00:47:30;100257.81;;;5.25;100.00
59435;BME280;45241;49.768;8.636;2023-12-20T00:49:55;100257.16;;;5.23;100.00
59435;BME280;45241;49.768;8.636;2023-12-20T00:52:21;100255.03;;;5.27;100.00
59435;BME280;45241;49.768;8.636;2023-12-20T00:54:47;100256.16;;;5.24;100.00
59435;BME280;45241;49.768;8.636;2023-12-20T00:57:13;100252.84;;;5.22;100.00
59435;BME280;45241;49.768;8.636;2023-12-20T00:59:38;100244.34;;;5.19;100.00
59435;BME280;45241;49.768;8.636;2023-12-20T01:02:03;100249.81;;;5.17;100.00
59435;BME280;45241;49.768;8.636;2023-12-20T01:04:29;100247.31;;;5.16;100.00
59435;BME280;45241;49.768;8.636;2023-12-20T01:06:54;100246.50;;;5.15;100.00
59435;BME280;45241;49.768;8.636;2023-12-20T01:09:19;100251.34;;;5.20;100.00
59435;BME280;45241;49.768;8.636;2023-12-20T01:11:45;100247.63;;;5.13;100.00
59435;BME280;45241;49.768;8.636;2023-12-20T01:14:11;100247.63;;;5.13;100.00
59435;BME280;45241;49.768;8.636;2023-12-20T01:16:37;100255.22;;;5.08;100.00
59435;BME280;45241;49.768;8.636;2023-12-20T01:19:02;100256.56;;;5.12;100.00
59435;BME280;45241;49.768;8.636;2023-12-20T01:21:27;100250.06;;;5.06;100.00
59435;BME280;45241;49.768;8.636;2023-12-20T01:23:53;100242.44;;;5.03;100.00
59435;BME280;45241;49.768;8.636;2023-12-20T01:26:18;100240.94;;;5.09;100.00
59435;BME280;45241;49.768;8.636;2023-12-20T01:28:43;100243.59;;;5.09;100.00
59435;BME280;45241;49.768;8.636;2023-12-20T01:31:08;100231.16;;;5.09;100.00
59435;BME280;45241;49.768;8.636;2023-12-20T01:33:34;100239.81;;;5.11;100.00
59435;BME280;45241;49.768;8.636;2023-12-20T01:36:00;100231.47;;;5.06;100.00
59435;BME280;45241;49.768;8.636;2023-12-20T01:38:25;100245.94;;;5.12;100.00
59435;BME280;45241;49.768;8.636;2023-12-20T01:40:51;100246.75;;;5.04;100.00
59435;BME280;45241;49.768;8.636;2023-12-20T01:43:16;100250.75;;;5.08;100.00
59435;BME280;45241;49.768;8.636;2023-12-20T01:45:42;100256.53;;;5.04;100.00
59435;BME280;45241;49.768;8.636;2023-12-20T01:48:08;100244.09;;;5.04;100.00
59435;BME280;45241;49.768;8.636;2023-12-20T01:50:36;100244.75;;;5.06;100.00
59435;BME280;45241;49.768;8.636;2023-12-20T01:53:02;100240.59;;;5.04;100.00
59435;BME280;45241;49.768;8.636;2023-12-20T01:55:31;100241.44;;;5.04;100.00
59435;BME280;45241;49.768;8.636;2023-12-20T01:57:57;100236.78;;;5.06;100.00
59435;BME280;45241;49.768;8.636;2023-12-20T02:00:25;100240.75;;;5.02;100.00
59435;BME280;45241;49.768;8.636;2023-12-20T02:02:53;100247.91;;;5.02;100.00
59435;BME280;45241;49.768;8.636;2023-12-20T02:05:20;100246.06;;;5.02;100.00
59435;BME280;45241;49.768;8.636;2023-12-20T02:07:46;100247.75;;;5.03;100.00
59435;BME280;45241;49.768;8.636;2023-12-20T02:10:11;100244.91;;;5.05;100.00
59435;BME280;45241;49.768;8.636;2023-12-20T02:12:38;100251.66;;;4.99;100.00
59435;BME280;45241;49.768;8.636;2023-12-20T02:15:04;100251.66;;;4.99;100.00
59435;BME280;45241;49.768;8.636;2023-12-20T02:17:29;100247.41;;;5.06;100.00
59435;BME280;45241;49.768;8.636;2023-12-20T02:19:55;100245.44;;;5.08;100.00
59435;BME280;45241;49.768;8.636;2023-12-20T02:22:21;100240.91;;;5.01;100.00
59435;BME280;45241;49.768;8.636;2023-12-20T02:24:46;100231.94;;;5.02;100.00
59435;BME280;45241;49.768;8.636;2023-12-20T02:27:12;100235.72;;;4.99;100.00
59435;BME280;45241;49.768;8.636;2023-12-20T02:29:37;100234.91;;;4.99;100.00
59435;BME280;45241;49.768;8.636;2023-12-20T02:32:03;100245.44;;;5.08;100.00
59435;BME280;45241;49.768;8.636;2023-12-20T02:34:28;100225.50;;;5.04;100.00
59435;BME280;45241;49.768;8.636;2023-12-20T02:36:54;100229.44;;;5.00;100.00
59435;BME280;45241;49.768;8.636;2023-12-20T02:39:21;100221.78;;;4.97;100.00
59435;BME280;45241;49.768;8.636;2023-12-20T02:41:46;100225.81;;;5.01;100.00
59435;BME280;45241;49.768;8.636;2023-12-20T02:44:12;100218.66;;;5.02;100.00
59435;BME280;45241;49.768;8.636;2023-12-20T02:46:37;100226.78;;;5.00;100.00
59435;BME280;45241;49.768;8.636;2023-12-20T02:49:02;100240.22;;;4.99;100.00
59435;BME280;45241;49.768;8.636;2023-12-20T02:51:28;100218.34;;;5.05;100.00
59435;BME280;45241;49.768;8.636;2023-12-20T02:53:53;100213.47;;;5.00;100.00
59435;BME280;45241;49.768;8.636;2023-12-20T02:56:18;100207.41;;;5.08;100.00
59435;BME280;45241;49.768;8.636;2023-12-20T02:58:44;100212.72;;;5.08;100.00
59435;BME280;45241;49.768;8.636;2023-12-20T03:01:09;100224.50;;;5.05;100.00
59435;BME280;45241;49.768;8.636;2023-12-20T03:03:34;100238.47;;;5.07;100.00
59435;BME280;45241;49.768;8.636;2023-12-20T03:06:01;100243.78;;;5.07;100.00
59435;BME280;45241;49.768;8.636;2023-12-20T03:08:26;100228.97;;;5.05;100.00
59435;BME280;45241;49.768;8.636;2023-12-20T03:10:51;100199.66;;;5.14;100.00
59435;BME280;45241;49.768;8.636;2023-12-20T03:13:18;100214.38;;;5.09;100.00
59435;BME280;45241;49.768;8.636;2023-12-20T03:15:43;100218.03;;;5.08;100.00
59435;BME280;45241;49.768;8.636;2023-12-20T03:18:08;100227.50;;;5.10;100.00
59435;BME280;45241;49.768;8.636;2023-12-20T03:20:34;100230.00;;;5.12;100.00
59435;BME280;45241;49.768;8.636;2023-12-20T03:23:03;100241.47;;;5.12;100.00
59435;BME280;45241;49.768;8.636;2023-12-20T03:25:28;100243.28;;;5.12;100.00
59435;BME280;45241;49.768;8.636;2023-12-20T03:27:53;100233.22;;;5.15;100.00
59435;BME280;45241;49.768;8.636;2023-12-20T03:30:19;100233.22;;;5.15;100.00
59435;BME280;45241;49.768;8.636;2023-12-20T03:32:45;100230.56;;;5.15;100.00
59435;BME280;45241;49.768;8.636;2023-12-20T03:35:10;100230.84;;;5.12;100.00
59435;BME280;45241;49.768;8.636;2023-12-20T03:37:36;100235.03;;;5.15;100.00
59435;BME280;45241;49.768;8.636;2023-12-20T03:40:02;100231.38;;;5.16;100.00
59435;BME280;45241;49.768;8.636;2023-12-20T03:42:27;100230.75;;;5.22;100.00
59435;BME280;45241;49.768;8.636;2023-12-20T03:44:53;100237.06;;;5.21;100.00
59435;BME280;45241;49.768;8.636;2023-12-20T03:47:18;100241.88;;;5.25;100.00
59435;BME280;45241;49.768;8.636;2023-12-20T03:49:43;100235.28;;;5.30;100.00
59435;BME280;45241;49.768;8.636;2023-12-20T03:52:08;100230.56;;;5.23;100.00
59435;BME280;45241;49.768;8.636;2023-12-20T03:54:36;100237.56;;;5.24;100.00
59435;BME280;45241;49.768;8.636;2023-12-20T03:57:02;100235.56;;;5.27;100.00
59435;BME280;45241;49.768;8.636;2023-12-20T03:59:27;100239.94;;;5.28;100.00
59435;BME280;45241;49.768;8.636;2023-12-20T04:01:53;100241.59;;;5.29;100.00
59435;BME280;45241;49.768;8.636;2023-12-20T04:04:18;100241.88;;;5.25;100.00
59435;BME280;45241;49.768;8.636;2023-12-20T04:06:44;100241.59;;;5.29;100.00
59435;BME280;45241;49.768;8.636;2023-12-20T04:09:09;100252.50;;;5.25;100.00
59435;BME280;45241;49.768;8.636;2023-12-20T04:11:34;100242.59;;;5.28;100.00
59435;BME280;45241;49.768;8.636;2023-12-20T04:14:00;100246.59;;;5.32;100.00
59435;BME280;45241;49.768;8.636;2023-12-20T04:16:26;100249.41;;;5.30;100.00
59435;BME280;45241;49.768;8.636;2023-12-20T04:18:51;100258.38;;;5.29;100.00
59435;BME280;45241;49.768;8.636;2023-12-20T04:21:17;100257.22;;;5.32;100.00
59435;BME280;45241;49.768;8.636;2023-12-20T04:23:43;100260.88;;;5.31;100.00
59435;BME280;45241;49.768;8.636;2023-12-20T04:26:09;100249.56;;;5.29;100.00
59435;BME280;45241;49.768;8.636;2023-12-20T04:28:34;100256.53;;;5.30;100.00
59435;BME280;45241;49.768;8.636;2023-12-20T04:30:59;100270.50;;;5.32;100.00
59435;BME280;45241;49.768;8.636;2023-12-20T04:33:24;100272.53;;;5.38;100.00
59435;BME280;45241;49.768;8.636;2023-12-20T04:35:50;100260.22;;;5.37;100.00
59435;BME280;45241;49.768;8.636;2023-12-20T04:38:15;100261.91;;;5.38;100.00
59435;BME280;45241;49.768;8.636;2023-12-20T04:40:40;100263.72;;;5.37;100.00
59435;BME280;45241;49.768;8.636;2023-12-20T04:43:07;100267.06;;;5.39;100.00
59435;BME280;45241;49.768;8.636;2023-12-20T04:45:32;100276.19;;;5.37;100.00
59435;BME280;45241;49.768;8.636;2023-12-20T04:47:58;100277.22;;;5.44;100.00
59435;BME280;45241;49.768;8.636;2023-12-20T04:50:23;100273.34;;;5.38;100.00
59435;BME280;45241;49.768;8.636;2023-12-20T04:52:48;100274.75;;;5.42;100.00
59435;BME280;45241;49.768;8.636;2023-12-20T04:55:14;100277.22;;;5.44;100.00
59435;BME280;45241;49.768;8.636;2023-12-20T04:57:39;100292.50;;;5.42;100.00
59435;BME280;45241;49.768;8.636;2023-12-20T05:00:05;100298.50;;;5.44;100.00
59435;BME280;45241;49.768;8.636;2023-12-20T05:02:31;100304.16;;;5.49;100.00
59435;BME280;45241;49.768;8.636;2023-12-20T05:04:56;100295.69;;;5.45;100.00
59435;BME280;45241;49.768;8.636;2023-12-20T05:07:21;100294.03;;;5.44;100.00
59435;BME280;45241;49.768;8.636;2023-12-20T05:09:47;100307.97;;;5.46;100.00
59435;BME280;45241;49.768;8.636;2023-12-20T05:12:12;100305.69;;;5.51;100.00
59435;BME280;45241;49.768;8.636;2023-12-20T05:14:37;100307.22;;;5.54;100.00
59435;BME280;45241;49.768;8.636;2023-12-20T05:17:03;100312.38;;;5.56;100.00
59435;BME280;45241;49.768;8.636;2023-12-20T05:19:28;100320.13;;;5.49;100.00
59435;BME280;45241;49.768;8.636;2023-12-20T05:21:54;100316.97;;;5.45;100.00
59435;BME280;45241;49.768;8.636;2023-12-20T05:24:19;100314.06;;;5.39;100.00
59435;BME280;45241;49.768;8.636;2023-12-20T05:26:44;100314.47;;;5.44;100.00
59435;BME280;45241;49.768;8.636;2023-12-20T05:29:09;100324.34;;;5.34;100.00
59435;BME280;45241;49.768;8.636;2023-12-20T05:31:35;100325.91;;;5.44;100.00
59435;BME280;45241;49.768;8.636;2023-12-20T05:34:00;100324.78;;;5.47;100.00
59435;BME280;45241;49.768;8.636;2023-12-20T05:36:26;100344.16;;;5.39;100.00
59435;BME280;45241;49.768;8.636;2023-12-20T05:38:51;100337.06;;;5.48;100.00
59435;BME280;45241;49.768;8.636;2023-12-20T05:41:16;100340.41;;;5.50;100.00
59435;BME280;45241;49.768;8.636;2023-12-20T05:43:43;100348.53;;;5.48;100.00
59435;BME280;45241;49.768;8.636;2023-12-20T05:46:10;100350.22;;;5.49;100.00
59435;BME280;45241;49.768;8.636;2023-12-20T05:48:36;100358.84;;;5.51;100.00
59435;BME280;45241;49.768;8.636;2023-12-20T05:51:01;100360.00;;;5.49;100.00
59435;BME280;45241;49.768;8.636;2023-12-20T05:53:26;100354.34;;;5.44;100.00
59435;BME280;45241;49.768;8.636;2023-12-20T05:55:52;100370.41;;;5.60;100.00
59435;BME280;45241;49.768;8.636;2023-12-20T05:58:17;100362.22;;;5.53;100.00
59435;BME280;45241;49.768;8.636;2023-12-20T06:00:43;100358.16;;;5.41;100.00
59435;BME280;45241;49.768;8.636;2023-12-20T06:03:08;100364.59;;;5.39;100.00
59435;BME280;45241;49.768;8.636;2023-12-20T06:05:33;100376.31;;;5.28;100.00
59435;BME280;45241;49.768;8.636;2023-12-20T06:07:58;100374.84;;;5.34;100.00
59435;BME280;45241;49.768;8.636;2023-12-20T06:10:27;100369.84;;;5.31;100.00
59435;BME280;45241;49.768;8.636;2023-12-20T06:12:53;100370.84;;;5.30;100.00
59435;BME280;45241;49.768;8.636;2023-12-20T06:15:18;100368.88;;;5.32;100.00
59435;BME280;45241;49.768;8.636;2023-12-20T06:17:43;100367.50;;;5.28;100.00
59435;BME280;45241;49.768;8.636;2023-12-20T06:20:09;100366.38;;;5.30;100.00
59435;BME280;45241;49.768;8.636;2023-12-20T06:22:35;100374.50;;;5.29;100.00
59435;BME280;45241;49.768;8.636;2023-12-20T06:25:02;100367.63;;;5.26;100.00
59435;BME280;45241;49.768;8.636;2023-12-20T06:27:28;100364.38;;;5.32;100.00
59435;BME280;45241;49.768;8.636;2023-12-20T06:29:53;100371.28;;;5.25;100.00
59435;BME280;45241;49.768;8.636;2023-12-20T06:32:19;100359.91;;;5.33;100.00
59435;BME280;45241;49.768;8.636;2023-12-20T06:34:44;100365.56;;;5.38;100.00
59435;BME280;45241;49.768;8.636;2023-12-20T06:37:10;100363.22;;;5.35;100.00
59435;BME280;45241;49.768;8.636;2023-12-20T06:39:35;100363.91;;;5.37;100.00
59435;BME280;45241;49.768;8.636;2023-12-20T06:42:00;100365.09;;;5.16;100.00
59435;BME280;45241;49.768;8.636;2023-12-20T06:44:26;100372.00;;;5.27;100.00
59435;BME280;45241;49.768;8.636;2023-12-20T06:46:51;100372.69;;;4.93;100.00
59435;BME280;45241;49.768;8.636;2023-12-20T06:49:16;100372.31;;;5.06;100.00
59435;BME280;45241;49.768;8.636;2023-12-20T06:51:42;100365.91;;;4.99;100.00
59435;BME280;45241;49.768;8.636;2023-12-20T06:54:07;100366.06;;;4.98;100.00
59435;BME280;45241;49.768;8.636;2023-12-20T06:56:32;100365.97;;;4.72;100.00
59435;BME280;45241;49.768;8.636;2023-12-20T06:58:58;100357.25;;;4.61;100.00
59435;BME280;45241;49.768;8.636;2023-12-20T07:01:23;100377.38;;;4.64;100.00
59435;BME280;45241;49.768;8.636;2023-12-20T07:03:49;100393.00;;;4.67;100.00
59435;BME280;45241;49.768;8.636;2023-12-20T07:06:14;100391.84;;;4.52;100.00
59435;BME280;45241;49.768;8.636;2023-12-20T07:08:41;100388.63;;;4.48;100.00
59435;BME280;45241;49.768;8.636;2023-12-20T07:11:07;100368.84;;;4.60;100.00
59435;BME280;45241;49.768;8.636;2023-12-20T07:13:32;100375.34;;;4.48;100.00
59435;BME280;45241;49.768;8.636;2023-12-20T07:15:57;100385.22;;;4.38;100.00
59435;BME280;45241;49.768;8.636;2023-12-20T07:18:25;100389.34;;;4.50;100.00
59435;BME280;45241;49.768;8.636;2023-12-20T07:20:51;100389.22;;;4.42;100.00
59435;BME280;45241;49.768;8.636;2023-12-20T07:23:16;100394.00;;;4.39;100.00
59435;BME280;45241;49.768;8.636;2023-12-20T07:25:41;100391.91;;;4.32;100.00
59435;BME280;45241;49.768;8.636;2023-12-20T07:28:07;100398.38;;;4.30;100.00
59435;BME280;45241;49.768;8.636;2023-12-20T07:30:32;100392.19;;;4.39;100.00
59435;BME280;45241;49.768;8.636;2023-12-20T07:32:57;100398.03;;;4.43;100.00
59435;BME280;45241;49.768;8.636;2023-12-20T07:35:23;100390.16;;;4.51;100.00
59435;BME280;45241;49.768;8.636;2023-12-20T07:37:48;100394.03;;;4.56;100.00
59435;BME280;45241;49.768;8.636;2023-12-20T07:40:14;100402.00;;;4.56;100.00
59435;BME280;45241;49.768;8.636;2023-12-20T07:42:42;100401.41;;;4.62;100.00
59435;BME280;45241;49.768;8.636;2023-12-20T07:45:07;100404.44;;;4.68;100.00
59435;BME280;45241;49.768;8.636;2023-12-20T07:47:34;100408.78;;;4.69;100.00
59435;BME280;45241;49.768;8.636;2023-12-20T07:50:00;100408.94;;;4.85;100.00
59435;BME280;45241;49.768;8.636;2023-12-20T07:52:25;100414.56;;;4.82;100.00
59435;BME280;45241;49.768;8.636;2023-12-20T07:54:51;100407.16;;;5.03;100.00
59435;BME280;45241;49.768;8.636;2023-12-20T07:57:16;100407.84;;;5.05;100.00
59435;BME280;45241;49.768;8.636;2023-12-20T07:59:41;100405.56;;;4.92;100.00
59435;BME280;45241;49.768;8.636;2023-12-20T08:02:07;100410.25;;;4.99;100.00
59435;BME280;45241;49.768;8.636;2023-12-20T08:04:32;100404.88;;;5.08;100.00
59435;BME280;45241;49.768;8.636;2023-12-20T08:06:58;100416.31;;;5.09;100.00
59435;BME280;45241;49.768;8.636;2023-12-20T08:09:23;100417.94;;;5.02;100.00
59435;BME280;45241;49.768;8.636;2023-12-20T08:11:49;100413.81;;;5.07;100.00
59435;BME280;45241;49.768;8.636;2023-12-20T08:14:15;100409.56;;;4.97;100.00
59435;BME280;45241;49.768;8.636;2023-12-20T08:16:40;100413.16;;;5.05;100.00
59435;BME280;45241;49.768;8.636;2023-12-20T08:19:06;100412.22;;;4.97;100.00
59435;BME280;45241;49.768;8.636;2023-12-20T08:21:31;100418.00;;;5.10;100.00
59435;BME280;45241;49.768;8.636;2023-12-20T08:23:56;100419.50;;;5.12;100.00
59435;BME280;45241;49.768;8.636;2023-12-20T08:26:22;100422.03;;;5.14;100.00
59435;BME280;45241;49.768;8.636;2023-12-20T08:28:48;100417.78;;;5.21;100.00
59435;BME280;45241;49.768;8.636;2023-12-20T08:31:17;100428.41;;;5.21;100.00
59435;BME280;45241;49.768;8.636;2023-12-20T08:33:44;100438.34;;;5.19;100.00
59435;BME280;45241;49.768;8.636;2023-12-20T08:36:10;100433.66;;;5.31;100.00
59435;BME280;45241;49.768;8.636;2023-12-20T08:38:36;100439.56;;;5.24;100.00
59435;BME280;45241;49.768;8.636;2023-12-20T08:41:01;100426.13;;;5.26;100.00
59435;BME280;45241;49.768;8.636;2023-12-20T08:43:28;100427.66;;;5.29;100.00
59435;BME280;45241;49.768;8.636;2023-12-20T08:45:53;100437.44;;;5.28;100.00
59435;BME280;45241;49.768;8.636;2023-12-20T08:48:19;100437.72;;;5.25;100.00
59435;BME280;45241;49.768;8.636;2023-12-20T08:50:44;100439.97;;;5.30;100.00
59435;BME280;45241;49.768;8.636;2023-12-20T08:53:10;100440.09;;;5.28;100.00
59435;BME280;45241;49.768;8.636;2023-12-20T08:55:35;100441.38;;;5.24;100.00
59435;BME280;45241;49.768;8.636;2023-12-20T08:58:00;100452.78;;;5.34;100.00
59435;BME280;45241;49.768;8.636;2023-12-20T09:00:25;100450.28;;;5.33;100.00
59435;BME280;45241;49.768;8.636;2023-12-20T09:02:53;100444.97;;;5.33;100.00
59435;BME280;45241;49.768;8.636;2023-12-20T09:05:19;100440.09;;;5.28;100.00
59435;BME280;45241;49.768;8.636;2023-12-20T09:07:45;100445.16;;;5.39;100.00
59435;BME280;45241;49.768;8.636;2023-12-20T09:10:10;100452.63;;;5.36;100.00
59435;BME280;45241;49.768;8.636;2023-12-20T09:12:35;100448.44;;;5.33;100.00
59435;BME280;45241;49.768;8.636;2023-12-20T09:15:03;100441.31;;;5.34;100.00
59435;BME280;45241;49.768;8.636;2023-12-20T09:17:28;100441.69;;;5.39;100.00
59435;BME280;45241;49.768;8.636;2023-12-20T09:19:54;100448.31;;;5.35;100.00
59435;BME280;45241;49.768;8.636;2023-12-20T09:22:20;100450.97;;;5.35;100.00
59435;BME280;45241;49.768;8.636;2023-12-20T09:24:46;100449.22;;;5.43;100.00
59435;BME280;45241;49.768;8.636;2023-12-20T09:27:11;100447.69;;;5.41;100.00
59435;BME280;45241;49.768;8.636;2023-12-20T09:29:36;100453.31;;;5.38;100.00
59435;BME280;45241;49.768;8.636;2023-12-20T09:32:02;100446.41;;;5.45;100.00
59435;BME280;45241;49.768;8.636;2023-12-20T09:34:27;100449.59;;;5.48;100.00
59435;BME280;45241;49.768;8.636;2023-12-20T09:36:53;100451.91;;;5.51;100.00
59435;BME280;45241;49.768;8.636;2023-12-20T09:39:19;100449.34;;;5.60;100.00
59435;BME280;45241;49.768;8.636;2023-12-20T09:41:51;100444.69;;;5.62;100.00
59435;BME280;45241;49.768;8.636;2023-12-20T09:44:19;100447.53;;;5.60;100.00
59435;BME280;45241;49.768;8.636;2023-12-20T09:46:45;100440.75;;;5.66;100.00
59435;BME280;45241;49.768;8.636;2023-12-20T09:49:15;100445.94;;;5.67;100.00
59435;BME280;45241;49.768;8.636;2023-12-20T09:51:42;100440.97;;;5.72;100.00
59435;BME280;45241;49.768;8.636;2023-12-20T09:54:08;100451.28;;;5.75;100.00
59435;BME280;45241;49.768;8.636;2023-12-20T09:56:34;100456.59;;;5.75;100.00
59435;BME280;45241;49.768;8.636;2023-12-20T09:59:00;100449.31;;;5.77;100.00
59435;BME280;45241;49.768;8.636;2023-12-20T10:01:25;100447.94;;;5.73;100.00
59435;BME280;45241;49.768;8.636;2023-12-20T10:03:54;100458.44;;;5.75;100.00
59435;BME280;45241;49.768;8.636;2023-12-20T10:06:20;100456.28;;;5.78;100.00
59435;BME280;45241;49.768;8.636;2023-12-20T10:08:45;100457.59;;;5.74;100.00
59435;BME280;45241;49.768;8.636;2023-12-20T10:11:11;100462.31;;;5.80;100.00
59435;BME280;45241;49.768;8.636;2023-12-20T10:13:40;100456.16;;;5.80;100.00
59435;BME280;45241;49.768;8.636;2023-12-20T10:16:06;100438.38;;;5.80;100.00
59435;BME280;45241;49.768;8.636;2023-12-20T10:18:35;100445.72;;;5.87;100.00
59435;BME280;45241;49.768;8.636;2023-12-20T10:21:01;100439.91;;;5.91;100.00
59435;BME280;45241;49.768;8.636;2023-12-20T10:23:26;100442.28;;;5.94;100.00
59435;BME280;45241;49.768;8.636;2023-12-20T10:25:58;100441.13;;;5.97;100.00
59435;BME280;45241;49.768;8.636;2023-12-20T10:28:24;100428.19;;;6.02;100.00
59435;BME280;45241;49.768;8.636;2023-12-20T10:30:53;100431.69;;;6.02;100.00
59435;BME280;45241;49.768;8.636;2023-12-20T10:33:26;100431.22;;;6.07;100.00
59435;BME280;45241;49.768;8.636;2023-12-20T10:35:52;100425.59;;;6.10;100.00
59435;BME280;45241;49.768;8.636;2023-12-20T10:38:18;100423.09;;;6.08;100.00
59435;BME280;45241;49.768;8.636;2023-12-20T10:40:45;100418.75;;;6.07;100.00
59435;BME280;45241;49.768;8.636;2023-12-20T10:43:11;100418.44;;;6.10;100.00
59435;BME280;45241;49.768;8.636;2023-12-20T10:45:36;100421.59;;;6.14;100.00
59435;BME280;45241;49.768;8.636;2023-12-20T10:48:02;100417.28;;;6.13;100.00
59435;BME280;45241;49.768;8.636;2023-12-20T10:50:28;100419.78;;;6.14;100.00
59435;BME280;45241;49.768;8.636;2023-12-20T10:52:54;100425.78;;;6.17;100.00
59435;BME280;45241;49.768;8.636;2023-12-20T10:55:22;100415.00;;;6.18;100.00
59435;BME280;45241;49.768;8.636;2023-12-20T10:57:49;100417.66;;;6.18;100.00
59435;BME280;45241;49.768;8.636;2023-12-20T11:00:17;100421.00;;;6.20;100.00
59435;BME280;45241;49.768;8.636;2023-12-20T11:02:43;100417.66;;;6.18;100.00
59435;BME280;45241;49.768;8.636;2023-12-20T11:05:26;100421.66;;;6.22;100.00
59435;BME280;45241;49.768;8.636;2023-12-20T11:08:13;100413.00;;;6.20;100.00
59435;BME280;45241;49.768;8.636;2023-12-20T11:11:21;100402.88;;;6.24;100.00
59435;BME280;45241;49.768;8.636;2023-12-20T11:16:22;100403.19;;;6.21;100.00
59435;BME280;45241;49.768;8.636;2023-12-20T11:18:47;100395.03;;;6.22;100.00
59435;BME280;45241;49.768;8.636;2023-12-20T11:21:12;100397.03;;;6.20;100.00
59435;BME280;45241;49.768;8.636;2023-12-20T11:23:42;100387.72;;;6.24;100.00
59435;BME280;45241;49.768;8.636;2023-12-20T11:26:07;100394.03;;;6.23;100.00
59435;BME280;45241;49.768;8.636;2023-12-20T11:28:32;100382.22;;;6.26;100.00
59435;BME280;45241;49.768;8.636;2023-12-20T11:31:00;100387.06;;;6.22;100.00
59435;BME280;45241;49.768;8.636;2023-12-20T11:35:56;100387.94;;;6.31;100.00
59435;BME280;45241;49.768;8.636;2023-12-20T11:38:22;100386.41;;;6.28;100.00
59435;BME280;45241;49.768;8.636;2023-12-20T11:40:49;100389.72;;;6.30;100.00
59435;BME280;45241;49.768;8.636;2023-12-20T11:43:35;100398.72;;;6.29;100.00
59435;BME280;45241;49.768;8.636;2023-12-20T11:46:04;100402.06;;;6.31;100.00
59435;BME280;45241;49.768;8.636;2023-12-20T11:48:31;100401.38;;;6.29;100.00
59435;BME280;45241;49.768;8.636;2023-12-20T11:50:57;100402.38;;;6.28;100.00
59435;BME280;45241;49.768;8.636;2023-12-20T11:53:22;100396.59;;;6.33;100.00
59435;BME280;45241;49.768;8.636;2023-12-20T11:55:49;100391.25;;;6.33;100.00
59435;BME280;45241;49.768;8.636;2023-12-20T11:58:14;100397.09;;;6.36;100.00
59435;BME280;45241;49.768;8.636;2023-12-20T12:00:41;100396.25;;;6.36;100.00
59435;BME280;45241;49.768;8.636;2023-12-20T12:03:07;100394.44;;;6.36;100.00
59435;BME280;45241;49.768;8.636;2023-12-20T12:05:33;100378.78;;;6.33;100.00
59435;BME280;45241;49.768;8.636;2023-12-20T12:07:58;100382.75;;;6.29;100.00
59435;BME280;45241;49.768;8.636;2023-12-20T12:10:23;100388.94;;;6.38;100.00
59435;BME280;45241;49.768;8.636;2023-12-20T12:12:49;100389.06;;;6.28;100.00
59435;BME280;45241;49.768;8.636;2023-12-20T12:15:14;100390.44;;;6.32;100.00
59435;BME280;45241;49.768;8.636;2023-12-20T12:17:40;100384.72;;;6.27;100.00
59435;BME280;45241;49.768;8.636;2023-12-20T12:20:06;100390.72;;;6.29;100.00
59435;BME280;45241;49.768;8.636;2023-12-20T12:22:32;100394.94;;;6.32;100.00
59435;BME280;45241;49.768;8.636;2023-12-20T12:24:59;100395.75;;;6.32;100.00
59435;BME280;45241;49.768;8.636;2023-12-20T12:27:34;100395.75;;;6.32;100.00
59435;BME280;45241;49.768;8.636;2023-12-20T12:30:04;100394.09;;;6.31;100.00
59435;BME280;45241;49.768;8.636;2023-12-20T12:32:30;100387.59;;;6.34;100.00
59435;BME280;45241;49.768;8.636;2023-12-20T12:34:55;100376.78;;;6.35;100.00
59435;BME280;45241;49.768;8.636;2023-12-20T12:37:20;100378.63;;;6.35;100.00
59435;BME280;45241;49.768;8.636;2023-12-20T12:39:49;100380.28;;;6.36;100.00
59435;BME280;45241;49.768;8.636;2023-12-20T12:42:14;100376.78;;;6.35;100.00
59435;BME280;45241;49.768;8.636;2023-12-20T12:44:39;100370.13;;;6.39;100.00
59435;BME280;45241;49.768;8.636;2023-12-20T12:47:05;100362.66;;;6.43;100.00
59435;BME280;45241;49.768;8.636;2023-12-20T12:49:31;100352.53;;;6.47;100.00